createdAt,value
2022-10-14T00:02:00.888Z,8.82
2022-10-14T00:07:04.443Z,8.83
2022-10-14T00:12:07.958Z,8.76
2022-10-14T00:17:11.293Z,8.73
2022-10-14T00:22:15.197Z,8.69
2022-10-14T00:27:18.700Z,8.71
2022-10-14T00:32:22.354Z,8.74
2022-10-14T00:37:25.665Z,8.76
2022-10-14T00:42:32.179Z,8.75
2022-10-14T00:47:35.561Z,8.71
2022-10-14T00:52:39.099Z,8.63
2022-10-14T00:57:43.086Z,8.64
2022-10-14T01:02:48.068Z,8.65
2022-10-14T01:08:15.132Z,8.64
2022-10-14T01:13:29.957Z,8.63
2022-10-14T01:19:20.017Z,8.64
2022-10-14T01:24:45.143Z,8.66
2022-10-14T01:30:09.040Z,8.64
2022-10-14T01:35:53.522Z,8.56
2022-10-14T01:41:11.580Z,8.55
2022-10-14T01:46:17.935Z,8.56
2022-10-14T01:51:31.203Z,8.49
2022-10-14T01:56:40.408Z,8.40
2022-10-14T02:01:44.279Z,8.38
2022-10-14T02:07:05.499Z,8.33
2022-10-14T02:12:52.540Z,8.26
2022-10-14T02:19:23.717Z,8.17
2022-10-14T02:24:36.954Z,8.15
2022-10-14T02:29:43.399Z,8.09
2022-10-14T02:34:52.383Z,8.00
2022-10-14T02:40:10.637Z,7.91
2022-10-14T02:45:16.350Z,7.82
2022-10-14T02:50:20.441Z,7.75
2022-10-14T02:55:23.749Z,7.67
2022-10-14T03:00:27.699Z,7.52
2022-10-14T03:05:31.093Z,7.41
2022-10-14T03:10:34.432Z,7.40
2022-10-14T03:15:37.740Z,7.43
2022-10-14T03:20:41.028Z,7.46
2022-10-14T03:25:45.529Z,7.45
2022-10-14T03:30:48.981Z,7.34
2022-10-14T03:35:52.294Z,7.23
2022-10-14T03:40:55.608Z,7.24
2022-10-14T03:45:58.895Z,7.31
2022-10-14T03:51:02.201Z,7.41
2022-10-14T03:56:06.948Z,7.50
2022-10-14T04:01:10.244Z,7.55
2022-10-14T04:06:14.782Z,7.48
2022-10-14T04:11:18.343Z,7.41
2022-10-14T04:16:21.679Z,7.27
2022-10-14T04:21:25.599Z,7.15
2022-10-14T04:26:28.950Z,7.11
2022-10-14T04:31:32.308Z,7.12
2022-10-14T04:36:36.030Z,7.04
2022-10-14T04:41:39.337Z,6.96
2022-10-14T04:46:42.649Z,6.91
2022-10-14T04:51:46.270Z,6.92
2022-10-14T04:56:49.581Z,6.96
2022-10-14T05:01:52.977Z,6.98
2022-10-14T05:06:56.411Z,6.86
2022-10-14T05:11:59.774Z,6.82
2022-10-14T05:17:03.444Z,6.83
2022-10-14T05:22:07.039Z,6.88
2022-10-14T05:27:10.363Z,6.90
2022-10-14T05:32:13.681Z,6.95
2022-10-14T05:37:16.991Z,7.02
2022-10-14T05:42:20.379Z,7.15
2022-10-14T05:47:24.127Z,7.21
2022-10-14T05:52:33.491Z,7.25
2022-10-14T05:57:37.819Z,7.28
2022-10-14T06:02:41.196Z,7.23
2022-10-14T06:07:44.611Z,7.16
2022-10-14T06:12:48.363Z,7.15
2022-10-14T06:17:51.608Z,7.16
2022-10-14T06:22:54.896Z,7.22
2022-10-14T06:28:06.090Z,7.34
2022-10-14T06:33:09.447Z,7.55
2022-10-14T06:38:13.757Z,7.76
2022-10-14T06:43:17.043Z,7.85
2022-10-14T06:48:20.385Z,7.87
2022-10-14T06:53:23.772Z,7.89
2022-10-14T06:58:27.900Z,8.04
2022-10-14T07:03:31.820Z,8.37
2022-10-14T07:08:35.805Z,8.72
2022-10-14T07:13:40.306Z,8.96
2022-10-14T07:18:44.876Z,9.08
2022-10-14T07:23:50.373Z,9.32
2022-10-14T07:28:53.816Z,9.52
2022-10-14T07:33:57.266Z,9.54
2022-10-14T07:39:01.348Z,9.47
2022-10-14T07:44:09.174Z,9.47
2022-10-14T07:49:19.755Z,9.61
2022-10-14T07:54:29.613Z,9.87
2022-10-14T07:59:33.994Z,10.15
2022-10-14T08:04:37.456Z,10.32
2022-10-14T08:09:41.393Z,10.47
2022-10-14T08:14:44.715Z,10.46
2022-10-14T08:19:50.943Z,10.57
2022-10-14T08:24:54.308Z,10.77
2022-10-14T08:29:57.653Z,11.06
2022-10-14T08:35:00.917Z,11.37
2022-10-14T08:40:06.258Z,11.61
2022-10-14T08:45:33.041Z,11.81
2022-10-14T08:50:52.020Z,11.95
2022-10-14T08:56:03.184Z,12.12
2022-10-14T09:01:28.956Z,12.30
2022-10-14T09:06:36.362Z,12.31
2022-10-14T09:11:44.997Z,12.41
2022-10-14T09:16:54.553Z,12.70
2022-10-14T09:22:01.657Z,13.03
2022-10-14T09:27:10.713Z,13.25
2022-10-14T09:32:28.039Z,13.45
2022-10-14T09:37:37.392Z,13.56
2022-10-14T09:42:49.715Z,13.78
2022-10-14T09:47:56.462Z,14.02
2022-10-14T09:53:06.052Z,14.14
2022-10-14T09:58:18.745Z,14.31
2022-10-14T10:03:39.997Z,14.51
2022-10-14T10:08:55.838Z,14.68
2022-10-14T10:14:21.713Z,14.83
2022-10-14T10:19:39.904Z,15.01
2022-10-14T10:24:45.236Z,15.00
2022-10-14T10:29:48.609Z,14.98
2022-10-14T10:35:11.174Z,15.12
2022-10-14T10:40:35.422Z,15.30
2022-10-14T10:46:03.981Z,15.52
2022-10-14T10:51:34.805Z,15.68
2022-10-14T10:56:50.844Z,15.83
2022-10-14T11:02:05.418Z,15.97
2022-10-14T11:07:55.119Z,16.05
2022-10-14T11:13:20.239Z,16.06
2022-10-14T11:18:51.585Z,16.09
2022-10-14T11:24:13.231Z,16.15
2022-10-14T11:30:01.724Z,16.32
2022-10-14T11:41:02.320Z,16.69
2022-10-14T11:46:16.585Z,16.84
2022-10-14T11:51:42.876Z,16.93
2022-10-14T11:57:05.215Z,16.96
2022-10-14T12:02:14.630Z,16.86
2022-10-14T12:07:26.860Z,16.79
2022-10-14T12:12:32.675Z,16.81
2022-10-14T12:17:47.597Z,16.75
2022-10-14T12:22:52.364Z,16.58
2022-10-14T12:27:56.271Z,16.47
2022-10-14T12:33:07.788Z,16.45
2022-10-14T12:38:13.282Z,16.41
2022-10-14T12:43:24.197Z,16.25
2022-10-14T12:48:34.155Z,16.13
2022-10-14T12:53:40.908Z,16.10
2022-10-14T12:59:01.556Z,16.22
2022-10-14T13:04:20.447Z,16.33
2022-10-14T13:09:35.504Z,16.24
2022-10-14T13:15:02.679Z,16.06
2022-10-14T13:20:35.257Z,15.99
2022-10-14T13:25:40.814Z,15.94
2022-10-14T13:31:05.610Z,16.01
2022-10-14T13:36:39.286Z,16.17
2022-10-14T13:41:45.611Z,16.45
2022-10-14T13:46:50.614Z,16.61
2022-10-14T13:52:00.963Z,16.54
2022-10-14T14:02:36.256Z,16.27
2022-10-14T14:13:05.815Z,16.24
2022-10-14T14:18:49.114Z,16.35
2022-10-14T14:24:01.937Z,16.35
2022-10-14T14:29:19.552Z,16.40
2022-10-14T14:34:24.185Z,16.46
2022-10-14T14:39:30.166Z,16.31
2022-10-14T14:44:34.833Z,16.07
2022-10-14T14:49:40.578Z,15.85
2022-10-14T14:54:48.726Z,15.63
2022-10-14T15:00:04.268Z,15.43
2022-10-14T15:05:11.503Z,15.29
2022-10-14T15:10:28.911Z,15.14
2022-10-14T15:15:34.964Z,15.01
2022-10-14T15:20:39.160Z,14.91
2022-10-14T15:25:42.494Z,14.86
2022-10-14T15:30:46.290Z,14.86
2022-10-14T15:36:02.605Z,14.88
2022-10-14T15:41:06.244Z,14.89
2022-10-14T15:46:31.815Z,14.81
2022-10-14T15:51:35.165Z,14.68
2022-10-14T15:56:39.590Z,14.53
2022-10-14T16:01:45.438Z,14.40
2022-10-14T16:06:50.872Z,14.29
2022-10-14T16:11:59.996Z,14.19
2022-10-14T16:17:04.064Z,14.16
2022-10-14T16:22:07.432Z,14.20
2022-10-14T16:27:10.698Z,14.16
2022-10-14T16:32:14.364Z,14.04
2022-10-14T16:37:21.153Z,13.88
2022-10-14T16:42:24.683Z,13.71
2022-10-14T16:47:28.507Z,13.60
2022-10-14T16:52:51.761Z,13.50
2022-10-14T16:57:55.086Z,13.36
2022-10-14T17:02:58.400Z,13.25
2022-10-14T17:08:01.813Z,13.09
2022-10-14T17:13:05.833Z,12.94
2022-10-14T17:18:12.377Z,12.79
2022-10-14T17:23:15.947Z,12.70
2022-10-14T17:28:20.646Z,12.68
2022-10-14T17:33:26.265Z,12.70
2022-10-14T17:38:31.035Z,12.76
2022-10-14T17:43:34.617Z,12.76
2022-10-14T17:48:42.842Z,12.70
2022-10-14T17:53:46.629Z,12.57
2022-10-14T17:58:59.501Z,12.42
2022-10-14T18:04:06.975Z,12.31
2022-10-14T18:09:11.650Z,12.20
2022-10-14T18:14:15.274Z,12.15
2022-10-14T18:19:18.597Z,12.16
2022-10-14T18:24:22.118Z,12.30
2022-10-14T18:29:25.823Z,12.45
2022-10-14T18:34:29.282Z,12.49
2022-10-14T18:39:32.896Z,12.53
2022-10-14T18:44:36.167Z,12.58
2022-10-14T18:49:40.658Z,12.63
2022-10-14T18:54:44.266Z,12.72
2022-10-14T18:59:51.213Z,12.72
2022-10-14T19:04:56.313Z,12.68
2022-10-14T19:09:59.715Z,12.63
2022-10-14T19:15:03.203Z,12.56
2022-10-14T19:20:08.770Z,12.47
2022-10-14T19:25:12.486Z,12.37
2022-10-14T19:30:16.094Z,12.33
2022-10-14T19:35:21.968Z,12.37
2022-10-14T19:40:25.610Z,12.39
2022-10-14T19:45:28.993Z,12.36
2022-10-14T19:50:32.487Z,12.28
2022-10-14T19:55:36.360Z,12.23
2022-10-14T20:00:39.869Z,12.20
2022-10-14T20:05:43.157Z,12.20
2022-10-14T20:10:46.616Z,12.18
2022-10-14T20:15:55.741Z,12.17
2022-10-14T20:21:01.513Z,12.13
2022-10-14T20:26:13.424Z,12.03
2022-10-14T20:31:20.932Z,11.96
2022-10-14T20:36:24.928Z,11.94
2022-10-14T20:41:28.378Z,11.94
2022-10-14T20:46:31.975Z,11.94
2022-10-14T20:51:35.921Z,11.89
2022-10-14T20:56:39.394Z,11.85
2022-10-14T21:01:42.772Z,11.80
2022-10-14T21:06:46.262Z,11.72
2022-10-14T21:11:49.739Z,11.66
2022-10-14T21:16:53.094Z,11.65
2022-10-14T21:21:56.497Z,11.68
2022-10-14T21:27:00.124Z,11.70
2022-10-14T21:32:04.533Z,11.68
2022-10-14T21:37:07.877Z,11.62
2022-10-14T21:42:11.187Z,11.55
2022-10-14T21:47:14.600Z,11.52
2022-10-14T21:52:18.312Z,11.54
2022-10-14T21:57:21.828Z,11.53
2022-10-14T22:02:25.352Z,11.48
2022-10-14T22:07:28.650Z,11.41
2022-10-14T22:12:31.986Z,11.32
2022-10-14T22:17:35.288Z,11.29
2022-10-14T22:22:38.705Z,11.27
2022-10-14T22:27:42.153Z,11.28
2022-10-14T22:32:45.490Z,11.29
2022-10-14T22:37:49.318Z,11.30
2022-10-14T22:42:52.943Z,11.27
2022-10-14T22:47:56.389Z,11.13
2022-10-14T22:52:59.633Z,11.07
2022-10-14T22:58:03.011Z,11.05
2022-10-14T23:03:06.359Z,11.01
2022-10-14T23:08:14.755Z,11.04
2022-10-14T23:13:18.082Z,10.98
2022-10-14T23:18:21.490Z,10.90
2022-10-14T23:23:25.022Z,10.84
2022-10-14T23:28:28.504Z,10.75
2022-10-14T23:33:32.819Z,10.72
2022-10-14T23:38:37.399Z,10.69
2022-10-14T23:43:41.923Z,10.70
2022-10-14T23:48:51.516Z,10.67
2022-10-14T23:54:04.825Z,10.66
2022-10-14T23:59:08.072Z,10.65
